Time;durP1;ratioP1;P1;durP2;ratioP2;P2;SDS_P1;SDS_P2;PMS_P1;PMS_P2;Temp;Humidity;BMP_temperature;BMP_pressure;BME280_temperature;BME280_humidity;BME280_pressure;Samples;Min_cycle;Max_cycle;Signal;HPM_P1;HPM_P2
2023/03/29 00:01:06;;;;;;;;;;;;;;;-2.01;70.02;93583.47;5051264;28;20003;-39
2023/03/29 00:03:33;;;;;;;;;;;;;;;-2.09;69.94;93590.47;5050376;28;20578;-39
2023/03/29 00:06:01;;;;;;;;;;;;;;;-2.10;70.63;93597.84;5051526;28;19927;-39
2023/03/29 00:08:28;;;;;;;;;;;;;;;-2.18;70.92;93588.59;5051189;28;19920;-39
2023/03/29 00:10:55;;;;;;;;;;;;;;;-2.08;71.38;93589.28;5034487;28;19920;-39
2023/03/29 00:13:20;;;;;;;;;;;;;;;-2.22;74.71;93585.31;5031025;28;20301;-39
2023/03/29 00:15:46;;;;;;;;;;;;;;;-2.20;74.44;93577.50;5031146;28;19920;-39
2023/03/29 00:18:11;;;;;;;;;;;;;;;-2.16;75.11;93591.59;5030979;28;19943;-39
2023/03/29 00:20:36;;;;;;;;;;;;;;;-2.11;73.31;93585.53;5031316;28;19956;-39
2023/03/29 00:23:02;;;;;;;;;;;;;;;-2.26;74.80;93578.59;5030762;28;19921;-39
2023/03/29 00:25:27;;;;;;;;;;;;;;;-2.30;74.93;93593.03;5030908;28;19917;-39
2023/03/29 00:27:52;;;;;;;;;;;;;;;-2.37;75.85;93584.53;5031074;28;19913;-39
2023/03/29 00:30:17;;;;;;;;;;;;;;;-2.33;73.87;93566.94;5030864;28;19924;-39
2023/03/29 00:32:43;;;;;;;;;;;;;;;-2.35;75.80;93563.19;5030717;28;19914;-39
2023/03/29 00:35:09;;;;;;;;;;;;;;;-2.46;76.50;93568.38;5048636;28;19944;-39
2023/03/29 00:37:35;;;;;;;;;;;;;;;-2.44;76.26;93572.13;5050646;28;20384;-39
2023/03/29 00:40:00;;;;;;;;;;;;;;;-2.43;75.39;93562.06;5050705;28;19952;-39
2023/03/29 00:42:25;;;;;;;;;;;;;;;-2.47;75.75;93566.91;5050462;28;19916;-39
2023/03/29 00:45:17;;;;;;;;;;;;;;;-2.59;76.70;93563.22;5041156;28;19914;-39
2023/03/29 00:48:01;;;;;;;;;;;;;;;-2.59;76.75;93563.22;5029278;28;19932;-39
2023/03/29 00:50:39;;;;;;;;;;;;;;;-2.62;75.07;93579.63;5046007;28;19920;-39
2023/03/29 00:53:08;;;;;;;;;;;;;;;-2.67;72.70;93580.25;5030303;28;19963;-39
2023/03/29 00:55:36;;;;;;;;;;;;;;;-2.66;73.87;93568.97;5053317;28;20007;-39
2023/03/29 00:58:01;;;;;;;;;;;;;;;-2.68;72.31;93573.34;5065843;28;19923;-39
2023/03/29 01:00:30;;;;;;;;;;;;;;;-2.57;65.56;93576.28;5050191;28;20003;-39
2023/03/29 01:02:58;;;;;;;;;;;;;;;-2.37;60.44;93577.19;5065550;28;20019;-39
2023/03/29 01:05:31;;;;;;;;;;;;;;;-2.21;58.44;93580.66;5050282;28;19913;-39
2023/03/29 01:07:57;;;;;;;;;;;;;;;-2.06;57.13;93581.44;5064827;28;19924;-39
2023/03/29 01:10:26;;;;;;;;;;;;;;;-2.10;57.32;93576.19;5052574;28;19924;-39
2023/03/29 01:12:55;;;;;;;;;;;;;;;-2.12;57.21;93584.03;5030018;28;20401;-39
2023/03/29 01:15:25;;;;;;;;;;;;;;;-2.15;57.31;93590.38;5045518;28;20380;-39
2023/03/29 01:17:52;;;;;;;;;;;;;;;-2.25;62.13;93596.34;5045011;28;19913;-39
2023/03/29 01:20:21;;;;;;;;;;;;;;;-2.37;64.94;93590.72;5045379;28;19917;-39
2023/03/29 01:23:05;;;;;;;;;;;;;;;-2.41;68.24;93592.84;5029892;28;20525;-39
2023/03/29 01:25:33;;;;;;;;;;;;;;;-2.46;69.51;93590.03;5030012;28;19920;-39
2023/03/29 01:28:03;;;;;;;;;;;;;;;-2.54;71.12;93595.03;5029718;28;20447;-39
2023/03/29 01:30:33;;;;;;;;;;;;;;;-2.53;72.28;93599.22;5045414;28;19999;-39
2023/03/29 01:33:09;;;;;;;;;;;;;;;-2.57;72.96;93606.00;5045171;28;19991;-39
2023/03/29 01:35:44;;;;;;;;;;;;;;;-2.69;74.11;93607.75;5049564;28;19917;-39
2023/03/29 01:38:13;;;;;;;;;;;;;;;-2.73;74.49;93607.16;5064827;28;19971;-39
2023/03/29 01:40:38;;;;;;;;;;;;;;;-2.69;75.08;93610.47;5049484;28;19913;-39
2023/03/29 01:43:26;;;;;;;;;;;;;;;-2.75;75.48;93622.34;5049261;28;19921;-39
2023/03/29 01:46:04;;;;;;;;;;;;;;;-2.79;75.84;93621.75;5011523;28;19952;-39
2023/03/29 01:48:42;;;;;;;;;;;;;;;-2.78;76.39;93612.44;5009830;28;19925;-39
2023/03/29 01:51:15;;;;;;;;;;;;;;;-2.79;76.47;93614.41;5010146;28;19914;-39
2023/03/29 01:53:45;;;;;;;;;;;;;;;-2.75;77.26;93619.66;5009754;28;19924;-39
2023/03/29 01:56:12;;;;;;;;;;;;;;;-2.73;76.88;93617.25;5050069;28;19935;-39
2023/03/29 01:58:42;;;;;;;;;;;;;;;-2.66;77.11;93622.28;5065085;28;19917;-39
2023/03/29 02:01:09;;;;;;;;;;;;;;;-2.83;77.68;93613.06;5064566;28;19924;-39
2023/03/29 02:03:40;;;;;;;;;;;;;;;-2.84;78.28;93606.19;5064696;28;19917;-39
2023/03/29 02:06:06;;;;;;;;;;;;;;;-2.92;78.21;93610.44;5063861;28;19919;-39
2023/03/29 02:08:31;;;;;;;;;;;;;;;-2.89;78.25;93623.78;5064907;28;20011;-39
2023/03/29 02:10:56;;;;;;;;;;;;;;;-2.92;78.08;93613.16;5047165;28;19913;-39
2023/03/29 02:13:22;;;;;;;;;;;;;;;-2.89;78.52;93615.66;5044869;28;19940;-39
2023/03/29 02:15:47;;;;;;;;;;;;;;;-2.84;77.99;93604.25;5029041;28;19917;-39
2023/03/29 02:18:13;;;;;;;;;;;;;;;-3.01;78.46;93618.59;5030868;28;19920;-39
2023/03/29 02:20:39;;;;;;;;;;;;;;;-3.01;78.45;93615.88;5048977;28;19913;-39
2023/03/29 02:23:07;;;;;;;;;;;;;;;-3.07;79.39;93624.59;5048458;28;20389;-39
2023/03/29 02:25:32;;;;;;;;;;;;;;;-3.02;79.36;93622.47;5033415;28;19979;-39
2023/03/29 02:27:58;;;;;;;;;;;;;;;-3.11;80.34;93634.81;5048882;28;20555;-39
2023/03/29 02:30:23;;;;;;;;;;;;;;;-3.18;80.55;93627.03;5033134;28;19936;-39
2023/03/29 02:32:49;;;;;;;;;;;;;;;-3.17;81.09;93638.59;5033121;28;19959;-39
2023/03/29 02:35:41;;;;;;;;;;;;;;;-3.22;81.04;93642.66;5052047;28;20304;-39
2023/03/29 02:38:07;;;;;;;;;;;;;;;-3.28;81.10;93639.09;5052734;28;19913;-39
2023/03/29 02:40:33;;;;;;;;;;;;;;;-3.30;81.84;93644.19;5028738;28;19952;-39
2023/03/29 02:42:59;;;;;;;;;;;;;;;-3.29;81.19;93645.69;5012307;28;20298;-39
2023/03/29 02:45:25;;;;;;;;;;;;;;;-3.33;81.18;93655.91;5025705;28;19992;-39
2023/03/29 02:47:51;;;;;;;;;;;;;;;-3.34;81.62;93651.72;5033339;28;20449;-39
2023/03/29 02:50:16;;;;;;;;;;;;;;;-3.33;82.10;93649.75;5048423;28;19913;-39
2023/03/29 02:52:43;;;;;;;;;;;;;;;-3.38;82.25;93651.09;5032862;28;19925;-39
2023/03/29 02:55:10;;;;;;;;;;;;;;;-3.25;81.51;93659.75;5048100;28;19913;-39
2023/03/29 02:57:37;;;;;;;;;;;;;;;-3.33;81.40;93658.59;5048157;28;19913;-39
2023/03/29 03:00:04;;;;;;;;;;;;;;;-3.24;81.21;93658.56;5032668;28;19925;-39
2023/03/29 03:02:29;;;;;;;;;;;;;;;-3.24;80.65;93660.53;5032917;28;19917;-39
2023/03/29 03:04:54;;;;;;;;;;;;;;;-3.26;81.79;93660.22;5032558;28;19924;-39
2023/03/29 03:07:19;;;;;;;;;;;;;;;-3.21;81.64;93665.03;5032877;28;19921;-39
2023/03/29 03:09:46;;;;;;;;;;;;;;;-3.23;82.25;93665.47;5032854;28;19916;-39
2023/03/29 03:12:11;;;;;;;;;;;;;;;-3.17;81.84;93668.31;5032449;28;20022;-39
2023/03/29 03:14:37;;;;;;;;;;;;;;;-3.08;81.33;93669.03;5032456;28;19917;-39
2023/03/29 03:17:02;;;;;;;;;;;;;;;-3.04;80.93;93681.59;5032578;28;20015;-39
2023/03/29 03:19:27;;;;;;;;;;;;;;;-2.97;80.30;93679.34;5032488;28;20381;-39
2023/03/29 03:21:53;;;;;;;;;;;;;;;-2.94;79.61;93685.75;5032525;28;19917;-39
2023/03/29 03:24:18;;;;;;;;;;;;;;;-2.93;79.60;93695.38;5032652;28;20312;-39
2023/03/29 03:26:45;;;;;;;;;;;;;;;-2.93;79.85;93698.06;5032298;28;20381;-39
2023/03/29 03:29:11;;;;;;;;;;;;;;;-2.89;80.17;93698.66;5031776;28;19917;-39
2023/03/29 03:31:36;;;;;;;;;;;;;;;-2.85;77.93;93699.22;5031405;28;19952;-39
2023/03/29 03:34:01;;;;;;;;;;;;;;;-2.86;78.17;93705.84;5041067;28;19975;-39
2023/03/29 03:36:27;;;;;;;;;;;;;;;-2.79;77.56;93700.84;5052017;28;20454;-39
2023/03/29 03:38:53;;;;;;;;;;;;;;;-2.82;77.04;93703.75;5052086;28;19917;-39
2023/03/29 03:41:18;;;;;;;;;;;;;;;-2.92;78.04;93697.59;5051991;28;19924;-39
2023/03/29 03:43:47;;;;;;;;;;;;;;;-2.92;78.19;93713.09;5051723;28;20415;-39
2023/03/29 03:46:13;;;;;;;;;;;;;;;-2.86;77.92;93705.84;5031760;28;19921;-39
2023/03/29 03:48:38;;;;;;;;;;;;;;;-2.82;77.77;93701.03;5031875;28;19962;-39
2023/03/29 03:51:03;;;;;;;;;;;;;;;-2.68;75.70;93711.91;5031845;28;19975;-39
2023/03/29 03:53:28;;;;;;;;;;;;;;;-2.62;76.11;93715.50;5032193;28;20332;-39
2023/03/29 03:55:54;;;;;;;;;;;;;;;-2.65;75.52;93716.44;5041896;28;19966;-39
2023/03/29 03:58:20;;;;;;;;;;;;;;;-2.55;75.31;93715.16;5051842;28;19913;-39
2023/03/29 04:00:49;;;;;;;;;;;;;;;-2.50;74.79;93719.94;5051510;28;19935;-39
2023/03/29 04:03:15;;;;;;;;;;;;;;;-2.46;73.97;93712.41;5051414;28;20447;-39
2023/03/29 04:05:41;;;;;;;;;;;;;;;-2.54;73.92;93721.31;5051429;28;20471;-39
2023/03/29 04:08:07;;;;;;;;;;;;;;;-2.51;73.81;93720.41;5037990;28;19956;-39
2023/03/29 04:10:33;;;;;;;;;;;;;;;-2.46;72.31;93722.47;5031389;28;20310;-39
2023/03/29 04:13:01;;;;;;;;;;;;;;;-2.50;73.89;93719.94;5031755;28;19920;-39
2023/03/29 04:15:27;;;;;;;;;;;;;;;-2.60;74.65;93723.88;5031445;28;20389;-39
2023/03/29 04:17:53;;;;;;;;;;;;;;;-2.62;74.74;93730.97;5031578;28;19975;-39
2023/03/29 04:20:18;;;;;;;;;;;;;;;-2.64;74.37;93719.88;5031363;28;20428;-39
2023/03/29 04:22:43;;;;;;;;;;;;;;;-2.59;72.99;93724.63;5031150;28;20233;-39
2023/03/29 04:25:10;;;;;;;;;;;;;;;-2.63;73.24;93738.34;5031490;28;19923;-39
2023/03/29 04:27:35;;;;;;;;;;;;;;;-2.72;74.02;93732.22;5031062;28;20278;-39
2023/03/29 04:30:01;;;;;;;;;;;;;;;-2.71;73.99;93739.88;5031446;28;19920;-39
2023/03/29 04:32:27;;;;;;;;;;;;;;;-2.71;73.76;93744.53;5030787;28;20294;-39
2023/03/29 04:34:52;;;;;;;;;;;;;;;-2.74;73.46;93729.22;5046742;28;19916;-39
2023/03/29 04:37:20;;;;;;;;;;;;;;;-2.75;73.84;93738.53;5050801;28;19923;-39
2023/03/29 04:39:46;;;;;;;;;;;;;;;-2.92;74.54;93738.13;5051136;28;19931;-39
2023/03/29 04:42:12;;;;;;;;;;;;;;;-2.85;74.12;93729.72;5050910;28;19916;-39
2023/03/29 04:44:39;;;;;;;;;;;;;;;-2.93;74.56;93744.00;5043656;28;19924;-39
2023/03/29 04:47:04;;;;;;;;;;;;;;;-2.96;74.86;93742.19;5030933;28;19913;-39
2023/03/29 04:49:29;;;;;;;;;;;;;;;-2.92;74.15;93746.22;5031019;28;20408;-39
2023/03/29 04:51:54;;;;;;;;;;;;;;;-2.87;74.94;93753.72;5030716;28;19920;-39
2023/03/29 04:54:20;;;;;;;;;;;;;;;-2.80;73.74;93747.25;5031041;28;19923;-39
2023/03/29 04:56:45;;;;;;;;;;;;;;;-2.74;73.47;93751.59;5047747;28;19917;-39
2023/03/29 04:59:11;;;;;;;;;;;;;;;-2.77;73.78;93757.16;5050518;28;19913;-39
2023/03/29 05:01:36;;;;;;;;;;;;;;;-2.65;74.01;93748.84;5050244;28;19920;-39
2023/03/29 05:04:02;;;;;;;;;;;;;;;-2.40;72.85;93751.13;5039731;28;19924;-39
2023/03/29 05:06:28;;;;;;;;;;;;;;;-2.19;71.53;93762.16;5030749;28;19913;-39
2023/03/29 05:08:54;;;;;;;;;;;;;;;-2.18;71.24;93764.38;5030655;28;19917;-39
2023/03/29 05:11:20;;;;;;;;;;;;;;;-2.30;71.93;93760.69;5030358;28;20695;-39
2023/03/29 05:13:45;;;;;;;;;;;;;;;-2.32;72.12;93763.09;5030314;28;20385;-39
2023/03/29 05:16:10;;;;;;;;;;;;;;;-2.25;71.91;93758.59;5030295;28;19924;-39
2023/03/29 05:18:36;;;;;;;;;;;;;;;-2.13;71.57;93768.44;5030536;28;19920;-39
2023/03/29 05:21:01;;;;;;;;;;;;;;;-1.95;70.44;93768.31;5030117;28;19920;-39
2023/03/29 05:23:27;;;;;;;;;;;;;;;-1.88;71.05;93766.00;5030425;28;19917;-39
2023/03/29 05:25:53;;;;;;;;;;;;;;;-1.78;69.70;93769.41;5030386;28;19921;-39
2023/03/29 05:28:18;;;;;;;;;;;;;;;-1.82;68.97;93768.84;5030233;28;19948;-39
2023/03/29 05:30:43;;;;;;;;;;;;;;;-1.84;69.65;93768.56;5030027;28;20456;-39
2023/03/29 05:33:09;;;;;;;;;;;;;;;-1.69;69.00;93777.47;5031434;28;20392;-39
2023/03/29 05:35:34;;;;;;;;;;;;;;;-1.50;68.60;93769.97;5049797;28;19924;-39
2023/03/29 05:38:00;;;;;;;;;;;;;;;-1.36;68.15;93771.94;5050100;28;20380;-39
2023/03/29 05:40:25;;;;;;;;;;;;;;;-1.33;68.19;93766.34;5049739;28;19917;-39
2023/03/29 05:42:51;;;;;;;;;;;;;;;-1.21;66.75;93773.47;5049704;28;19920;-39
2023/03/29 05:45:17;;;;;;;;;;;;;;;-0.65;65.63;93777.13;5036865;28;19921;-39
2023/03/29 05:47:42;;;;;;;;;;;;;;;0.36;62.13;93778.84;5029781;28;19943;-39
2023/03/29 05:50:09;;;;;;;;;;;;;;;0.66;59.18;93779.44;5029923;28;19917;-39
2023/03/29 05:52:35;;;;;;;;;;;;;;;1.19;59.08;93789.91;5029499;28;19947;-39
2023/03/29 05:55:00;;;;;;;;;;;;;;;1.12;57.65;93788.34;5032343;28;19924;-39
2023/03/29 05:57:26;;;;;;;;;;;;;;;0.84;58.65;93794.72;5049701;28;19962;-39
2023/03/29 05:59:52;;;;;;;;;;;;;;;1.18;58.42;93791.13;5042217;28;19921;-40
2023/03/29 06:02:17;;;;;;;;;;;;;;;1.33;57.55;93797.94;5029768;28;20305;-39
2023/03/29 06:04:43;;;;;;;;;;;;;;;1.29;57.55;93786.53;5029652;28;19917;-39
2023/03/29 06:07:11;;;;;;;;;;;;;;;1.63;56.44;93795.72;5029800;28;19924;-39
2023/03/29 06:09:38;;;;;;;;;;;;;;;2.36;53.94;93794.25;5029827;28;20297;-39
2023/03/29 06:12:04;;;;;;;;;;;;;;;2.87;51.02;93792.00;5029753;28;19936;-39
2023/03/29 06:14:29;;;;;;;;;;;;;;;2.99;50.91;93801.69;5029828;28;20377;-39
2023/03/29 06:16:55;;;;;;;;;;;;;;;2.85;50.50;93794.47;5029489;28;19913;-39
2023/03/29 06:19:21;;;;;;;;;;;;;;;2.88;48.89;93801.66;5029290;28;19924;-39
2023/03/29 06:21:46;;;;;;;;;;;;;;;1.83;51.95;93811.97;5029595;28;19917;-39
2023/03/29 06:24:12;;;;;;;;;;;;;;;1.58;53.09;93814.75;5029641;28;19944;-39
2023/03/29 06:26:37;;;;;;;;;;;;;;;1.39;54.18;93827.91;5029556;28;19913;-39
2023/03/29 06:29:03;;;;;;;;;;;;;;;1.18;55.03;93824.50;5029268;28;20024;-39
2023/03/29 06:31:28;;;;;;;;;;;;;;;1.18;55.40;93834.63;5029080;28;19964;-39
2023/03/29 06:33:54;;;;;;;;;;;;;;;1.27;54.65;93832.50;5036934;28;19917;-39
2023/03/29 06:36:19;;;;;;;;;;;;;;;0.95;53.26;93828.22;5049563;28;19966;-39
2023/03/29 06:38:44;;;;;;;;;;;;;;;1.46;53.09;93836.41;5049284;28;20331;-39
2023/03/29 06:41:10;;;;;;;;;;;;;;;2.53;49.60;93822.34;5049059;28;19920;-39
2023/03/29 06:43:35;;;;;;;;;;;;;;;2.23;48.87;93841.00;5049281;28;20007;-39
2023/03/29 06:46:00;;;;;;;;;;;;;;;2.55;48.49;93845.16;5030665;28;19916;-39
2023/03/29 06:48:26;;;;;;;;;;;;;;;2.65;47.88;93851.13;5029550;28;19913;-39
2023/03/29 06:50:53;;;;;;;;;;;;;;;2.36;47.36;93854.91;5029484;28;19971;-39
2023/03/29 06:53:18;;;;;;;;;;;;;;;1.86;48.36;93860.03;5029175;28;20018;-39
2023/03/29 06:55:44;;;;;;;;;;;;;;;2.78;46.08;93854.16;5033980;28;19956;-39
2023/03/29 06:58:09;;;;;;;;;;;;;;;2.95;46.47;93853.00;5029237;28;20000;-40
2023/03/29 07:00:37;;;;;;;;;;;;;;;2.56;46.79;93851.31;5029085;28;19921;-39
2023/03/29 07:03:05;;;;;;;;;;;;;;;2.10;47.58;93857.00;5029236;28;20356;-40
2023/03/29 07:05:30;;;;;;;;;;;;;;;2.25;47.33;93857.59;5032737;28;19963;-39
2023/03/29 07:07:58;;;;;;;;;;;;;;;3.45;45.72;93853.19;5033060;28;20408;-39
2023/03/29 07:10:26;;;;;;;;;;;;;;;5.17;42.14;93848.31;5032736;28;19917;-39
2023/03/29 07:12:52;;;;;;;;;;;;;;;5.42;40.76;93857.41;5032599;28;19917;-40
2023/03/29 07:15:18;;;;;;;;;;;;;;;5.57;39.53;93863.28;5032757;28;19920;-40
2023/03/29 07:17:44;;;;;;;;;;;;;;;5.53;41.09;93868.28;5032833;28;19924;-40
2023/03/29 07:20:12;;;;;;;;;;;;;;;5.10;41.37;93851.56;5032409;28;19913;-40
2023/03/29 07:22:38;;;;;;;;;;;;;;;4.08;42.45;93860.94;5032568;28;19960;-40
2023/03/29 07:25:03;;;;;;;;;;;;;;;5.52;41.05;93866.81;5032541;28;20373;-40
2023/03/29 07:27:28;;;;;;;;;;;;;;;7.30;36.98;93869.56;5032241;28;19917;-39
2023/03/29 07:29:55;;;;;;;;;;;;;;;7.41;36.75;93861.19;5032518;28;19917;-40
2023/03/29 07:32:21;;;;;;;;;;;;;;;8.49;34.97;93855.16;5032193;28;19913;-40
2023/03/29 07:34:48;;;;;;;;;;;;;;;9.21;33.81;93858.66;5047144;28;20502;-39
2023/03/29 07:37:13;;;;;;;;;;;;;;;8.07;34.45;93869.81;5052382;28;19917;-39
2023/03/29 07:39:39;;;;;;;;;;;;;;;9.28;34.13;93855.25;5051947;28;19958;-39
2023/03/29 07:42:05;;;;;;;;;;;;;;;10.03;31.98;93836.16;5051945;28;19920;-39
2023/03/29 07:44:32;;;;;;;;;;;;;;;9.21;32.09;93851.13;5052191;28;19919;-40
2023/03/29 07:46:58;;;;;;;;;;;;;;;8.88;32.13;93857.28;5051899;28;19995;-39
2023/03/29 07:49:24;;;;;;;;;;;;;;;9.53;31.99;93864.81;5051961;28;19913;-39
2023/03/29 07:51:49;;;;;;;;;;;;;;;10.37;31.34;93856.22;5049189;28;19925;-39
2023/03/29 07:54:15;;;;;;;;;;;;;;;9.80;30.46;93860.72;5032064;28;20458;-39
2023/03/29 07:56:40;;;;;;;;;;;;;;;9.43;31.83;93860.97;5048537;28;20427;-39
2023/03/29 07:59:05;;;;;;;;;;;;;;;9.63;30.27;93849.28;5051882;28;20369;-40
2023/03/29 08:01:31;;;;;;;;;;;;;;;10.24;30.29;93854.25;5051508;28;20046;-39
2023/03/29 08:03:56;;;;;;;;;;;;;;;10.86;29.56;93850.72;5051930;28;19920;-40
2023/03/29 08:06:21;;;;;;;;;;;;;;;10.82;30.31;93828.25;5051842;28;19920;-39
2023/03/29 08:08:47;;;;;;;;;;;;;;;11.40;27.96;93843.00;5051432;28;19963;-39
2023/03/29 08:11:12;;;;;;;;;;;;;;;12.31;26.82;93831.56;5032314;28;19943;-39
2023/03/29 08:13:38;;;;;;;;;;;;;;;11.82;26.88;93846.38;5031697;28;19924;-39
2023/03/29 08:16:04;;;;;;;;;;;;;;;10.74;27.57;93821.94;5030867;28;19963;-40
2023/03/29 08:18:30;;;;;;;;;;;;;;;11.33;28.73;93832.63;5031335;28;19917;-39
2023/03/29 08:20:55;;;;;;;;;;;;;;;12.43;26.80;93827.88;5031541;28;20027;-39
2023/03/29 08:23:21;;;;;;;;;;;;;;;13.52;24.33;93815.63;5031041;28;20646;-39
2023/03/29 08:25:46;;;;;;;;;;;;;;;12.23;26.86;93828.03;5031056;28;19948;-39
2023/03/29 08:28:12;;;;;;;;;;;;;;;11.40;27.02;93812.59;5031120;28;19917;-39
2023/03/29 08:30:38;;;;;;;;;;;;;;;10.72;29.27;93821.72;5031393;28;19920;-39
2023/03/29 08:33:03;;;;;;;;;;;;;;;9.99;29.76;93806.13;5031719;28;19952;-39
2023/03/29 08:35:29;;;;;;;;;;;;;;;9.39;29.65;93799.94;5051242;28;19968;-39
2023/03/29 08:37:54;;;;;;;;;;;;;;;8.27;30.66;93819.78;5051008;28;19921;-39
2023/03/29 08:40:20;;;;;;;;;;;;;;;7.75;31.29;93816.78;5051057;28;19962;-39
2023/03/29 08:42:47;;;;;;;;;;;;;;;6.93;33.77;93822.09;5051056;28;19913;-39
2023/03/29 08:45:13;;;;;;;;;;;;;;;7.64;34.00;93812.91;5038379;28;19921;-39
2023/03/29 08:47:58;;;;;;;;;;;;;;;9.37;32.63;93808.00;5030859;28;19920;-39
2023/03/29 08:50:35;;;;;;;;;;;;;;;10.54;28.70;93799.31;5042805;28;19977;-39
2023/03/29 08:53:04;;;;;;;;;;;;;;;9.60;29.26;93807.00;5042819;28;19966;-39
2023/03/29 08:55:30;;;;;;;;;;;;;;;8.65;31.47;93818.38;5052778;28;20415;-39
2023/03/29 08:57:55;;;;;;;;;;;;;;;8.03;30.71;93811.63;5050786;28;19917;-39
2023/03/29 09:00:36;;;;;;;;;;;;;;;7.75;32.96;93806.56;5050329;28;20392;-39
2023/03/29 09:03:01;;;;;;;;;;;;;;;7.53;33.27;93801.38;5050547;28;19970;-39
2023/03/29 09:05:33;;;;;;;;;;;;;;;7.53;33.70;93795.88;5050291;28;19912;-39
2023/03/29 09:07:59;;;;;;;;;;;;;;;7.01;34.45;93812.00;5065562;28;19912;-40
2023/03/29 09:10:27;;;;;;;;;;;;;;;6.84;35.05;93807.44;5052611;28;20011;-39
2023/03/29 09:13:13;;;;;;;;;;;;;;;7.24;33.29;93791.25;5046041;28;19959;-40
2023/03/29 09:15:44;;;;;;;;;;;;;;;8.21;31.88;93788.81;5029900;28;19957;-40
2023/03/29 09:18:17;;;;;;;;;;;;;;;7.75;31.82;93781.06;5030632;28;19913;-39
2023/03/29 09:20:49;;;;;;;;;;;;;;;6.19;33.69;93809.59;5045820;28;19917;-40
2023/03/29 09:23:19;;;;;;;;;;;;;;;5.99;36.05;93794.31;5029878;28;19924;-40
2023/03/29 09:25:52;;;;;;;;;;;;;;;6.26;35.92;93792.56;5045298;28;19920;-39
2023/03/29 09:28:17;;;;;;;;;;;;;;;5.92;34.47;93792.13;5029204;28;20397;-40
2023/03/29 09:30:48;;;;;;;;;;;;;;;6.09;34.95;93781.75;5029974;28;19917;-40
2023/03/29 09:33:33;;;;;;;;;;;;;;;5.41;36.95;93794.94;5047326;28;19917;-40
2023/03/29 09:36:00;;;;;;;;;;;;;;;5.72;36.84;93786.25;5050102;28;19983;-39
2023/03/29 09:38:26;;;;;;;;;;;;;;;5.84;36.66;93774.75;5065031;28;19923;-39
2023/03/29 09:40:56;;;;;;;;;;;;;;;5.91;36.88;93787.88;5065123;28;20011;-40
2023/03/29 09:43:31;;;;;;;;;;;;;;;6.23;35.78;93774.41;5049774;28;20484;-39
2023/03/29 09:45:56;;;;;;;;;;;;;;;6.87;35.09;93770.75;5046643;28;20349;-39
2023/03/29 09:48:22;;;;;;;;;;;;;;;6.65;35.04;93783.94;5029874;28;19917;-39
2023/03/29 09:50:50;;;;;;;;;;;;;;;5.88;34.71;93790.91;5029630;28;20377;-39
2023/03/29 09:53:15;;;;;;;;;;;;;;;5.95;37.07;93779.41;5044603;28;20439;-39
2023/03/29 09:55:41;;;;;;;;;;;;;;;5.46;36.63;93789.41;5029364;28;19916;-39
2023/03/29 09:58:10;;;;;;;;;;;;;;;5.53;37.78;93797.09;5044805;28;19967;-39
2023/03/29 10:00:35;;;;;;;;;;;;;;;5.37;38.80;93784.25;5044729;28;19974;-40
2023/03/29 10:03:00;;;;;;;;;;;;;;;5.55;36.89;93789.09;5029674;28;19921;-40
2023/03/29 10:05:26;;;;;;;;;;;;;;;4.96;36.63;93784.19;5029450;28;20352;-39
2023/03/29 10:07:53;;;;;;;;;;;;;;;5.32;37.80;93780.31;5044783;28;19917;-39
2023/03/29 10:10:22;;;;;;;;;;;;;;;5.38;34.93;93774.78;5029252;28;19913;-38
2023/03/29 10:12:49;;;;;;;;;;;;;;;5.21;35.33;93783.09;5029534;28;19920;-39
2023/03/29 10:15:16;;;;;;;;;;;;;;;5.34;36.78;93774.31;5044723;28;20321;-39
2023/03/29 10:17:42;;;;;;;;;;;;;;;6.21;35.90;93767.94;5044581;28;19917;-39
2023/03/29 10:20:17;;;;;;;;;;;;;;;7.31;34.36;93758.47;5044749;28;19919;-39
2023/03/29 10:22:54;;;;;;;;;;;;;;;7.26;33.59;93756.50;5029503;28;20063;-39
2023/03/29 10:25:20;;;;;;;;;;;;;;;8.59;31.68;93757.19;5029351;28;20573;-39
2023/03/29 10:27:45;;;;;;;;;;;;;;;10.26;30.03;93748.84;5044429;28;19917;-39
2023/03/29 10:30:11;;;;;;;;;;;;;;;10.80;29.69;93754.22;5044561;28;19917;-39
2023/03/29 10:32:37;;;;;;;;;;;;;;;11.07;28.95;93755.47;5029116;28;19913;-39
2023/03/29 10:35:05;;;;;;;;;;;;;;;11.29;27.26;93743.03;5046061;28;19917;-39
2023/03/29 10:37:30;;;;;;;;;;;;;;;11.52;26.44;93746.63;5049003;28;20630;-39
2023/03/29 10:39:56;;;;;;;;;;;;;;;10.38;27.55;93755.56;5051360;28;19916;-39
2023/03/29 10:42:22;;;;;;;;;;;;;;;9.14;28.49;93747.81;5053130;28;19940;-39
2023/03/29 10:44:55;;;;;;;;;;;;;;;8.81;26.65;93748.50;5044493;28;19947;-39
2023/03/29 10:47:20;;;;;;;;;;;;;;;8.17;27.78;93747.13;5032993;28;19917;-39
2023/03/29 10:49:48;;;;;;;;;;;;;;;9.13;27.75;93751.88;5032867;28;19923;-39
2023/03/29 10:52:15;;;;;;;;;;;;;;;8.97;27.58;93735.66;5032873;28;19913;-39
2023/03/29 10:54:40;;;;;;;;;;;;;;;8.71;26.33;93722.66;5033164;28;20000;-40
2023/03/29 10:57:09;;;;;;;;;;;;;;;9.65;26.12;93742.72;5013216;28;20004;-39
2023/03/29 11:00:05;;;;;;;;;;;;;;;9.40;26.26;93738.75;5013185;28;19914;-39
2023/03/29 11:02:37;;;;;;;;;;;;;;;9.64;26.28;93723.94;5015939;28;19921;-39
2023/03/29 11:05:12;;;;;;;;;;;;;;;9.16;26.26;93717.72;5012630;28;20013;-39
2023/03/29 11:07:50;;;;;;;;;;;;;;;8.66;24.19;93700.75;5012931;28;19914;-39
2023/03/29 11:10:24;;;;;;;;;;;;;;;8.24;26.93;93708.00;5056049;28;20011;-39
2023/03/29 11:12:52;;;;;;;;;;;;;;;7.60;25.03;93716.31;5032598;28;19913;-39
2023/03/29 11:15:36;;;;;;;;;;;;;;;6.83;26.99;93706.41;5032428;28;19920;-39
2023/03/29 11:18:31;;;;;;;;;;;;;;;6.61;26.56;93712.16;5032323;28;20680;-39
2023/03/29 11:21:02;;;;;;;;;;;;;;;5.80;27.04;93708.50;5012334;28;19922;-39
2023/03/29 11:23:34;;;;;;;;;;;;;;;6.39;27.89;93707.69;5047540;28;20032;-39
2023/03/29 11:25:59;;;;;;;;;;;;;;;7.03;25.63;93697.69;5047428;28;20411;-39
2023/03/29 11:28:25;;;;;;;;;;;;;;;7.69;27.64;93697.97;5032336;28;19913;-39
2023/03/29 11:30:53;;;;;;;;;;;;;;;8.32;27.94;93695.13;5031648;28;19952;-39
2023/03/29 11:33:21;;;;;;;;;;;;;;;9.44;24.88;93688.84;5034653;28;19920;-39
2023/03/29 11:35:50;;;;;;;;;;;;;;;10.05;25.05;93687.41;5052025;28;20051;-39
2023/03/29 11:38:21;;;;;;;;;;;;;;;10.12;23.83;93697.75;5051959;28;19913;-39
2023/03/29 11:40:47;;;;;;;;;;;;;;;10.11;23.72;93696.28;5047054;28;20601;-39
2023/03/29 11:43:14;;;;;;;;;;;;;;;10.30;22.74;93680.25;5031653;28;19935;-39
2023/03/29 11:45:49;;;;;;;;;;;;;;;10.50;23.06;93687.75;5046944;28;20415;-39
2023/03/29 11:48:16;;;;;;;;;;;;;;;9.96;23.26;93680.34;5046948;28;19920;-39
2023/03/29 11:50:58;;;;;;;;;;;;;;;9.42;23.24;93692.13;5045847;28;20417;-39
2023/03/29 11:53:24;;;;;;;;;;;;;;;9.74;23.43;93697.41;5046860;28;19916;-39
2023/03/29 11:55:50;;;;;;;;;;;;;;;9.83;24.12;93699.72;5046720;28;20393;-39
2023/03/29 11:58:35;;;;;;;;;;;;;;;9.70;24.55;93680.47;5031798;28;19920;-39
2023/03/29 12:01:03;;;;;;;;;;;;;;;9.70;22.66;93680.47;5030842;28;19944;-39
2023/03/29 12:03:39;;;;;;;;;;;;;;;9.66;22.28;93683.53;5031525;28;20288;-39
2023/03/29 12:06:07;;;;;;;;;;;;;;;9.87;23.26;93670.50;5046647;28;19913;-39
2023/03/29 12:08:35;;;;;;;;;;;;;;;8.35;22.87;93685.84;5031265;28;20029;-39
2023/03/29 12:11:06;;;;;;;;;;;;;;;8.68;24.57;93693.47;5046308;28;20393;-39
2023/03/29 12:13:45;;;;;;;;;;;;;;;8.64;24.70;93689.56;5031202;28;19957;-39
2023/03/29 12:16:18;;;;;;;;;;;;;;;8.63;24.53;93693.56;5031147;28;20378;-39
2023/03/29 12:18:47;;;;;;;;;;;;;;;9.27;25.34;93702.97;5031118;28;19971;-39
2023/03/29 12:21:17;;;;;;;;;;;;;;;9.68;24.08;93683.03;5046362;28;20027;-39
2023/03/29 12:23:43;;;;;;;;;;;;;;;9.00;22.39;93685.78;5046681;28;20540;-39
2023/03/29 12:26:15;;;;;;;;;;;;;;;8.82;23.19;93705.94;5030886;28;19913;-39
2023/03/29 12:29:13;;;;;;;;;;;;;;;8.95;24.07;93681.13;5030891;28;19913;-39
2023/03/29 12:31:41;;;;;;;;;;;;;;;9.16;23.56;93692.94;5039963;28;19917;-39
2023/03/29 12:34:16;;;;;;;;;;;;;;;9.04;24.02;93688.97;5040262;28;19917;-39
2023/03/29 12:36:47;;;;;;;;;;;;;;;9.07;23.94;93692.66;5049100;28;19916;-39
2023/03/29 12:39:14;;;;;;;;;;;;;;;9.23;23.84;93699.06;5030646;28;20222;-39
2023/03/29 12:41:40;;;;;;;;;;;;;;;8.82;22.60;93705.19;5046002;28;20397;-39
2023/03/29 12:44:05;;;;;;;;;;;;;;;8.71;24.04;93700.66;5030656;28;19917;-39
2023/03/29 12:46:31;;;;;;;;;;;;;;;9.16;26.49;93701.22;5046273;28;19913;-39
2023/03/29 12:49:03;;;;;;;;;;;;;;;9.39;24.49;93693.22;5045708;28;19913;-39
2023/03/29 12:51:31;;;;;;;;;;;;;;;8.83;23.79;93696.41;5030481;28;19971;-39
2023/03/29 12:54:07;;;;;;;;;;;;;;;9.22;23.39;93681.81;5045701;28;19913;-39